Time;durP1;ratioP1;P1;durP2;ratioP2;P2;SDS_P1;SDS_P2;PMS_P1;PMS_P2;Temp;Humidity;BMP_temperature;BMP_pressure;BME280_temperature;BME280_humidity;BME280_pressure;Samples;Min_cycle;Max_cycle;Signal;HPM_P1;HPM_P2
2021/12/28 00:00:16;;;;;;;20.73;6.28;;;;;;;6.55;99.78;99367.59;4968870;28;20255;-76
2021/12/28 00:02:44;;;;;;;19.48;6.43;;;;;;;6.50;99.33;99365.25;4990550;28;20370;-76
2021/12/28 00:05:10;;;;;;;26.58;6.65;;;;;;;6.44;99.64;99354.94;4982077;28;20023;-75
2021/12/28 00:07:36;;;;;;;26.15;6.53;;;;;;;6.44;99.44;99363.03;4981763;28;20034;-75
2021/12/28 00:10:04;;;;;;;24.83;7.30;;;;;;;6.43;99.31;99361.31;4980383;28;20435;-75
2021/12/28 00:12:32;;;;;;;26.45;8.50;;;;;;;6.43;99.47;99355.91;4974161;28;20116;-75
2021/12/28 00:15:18;;;;;;;22.80;6.22;;;;;;;6.39;99.39;99352.59;4978399;28;20692;-75
2021/12/28 00:17:59;;;;;;;21.80;6.90;;;;;;;6.37;99.30;99359.09;4978379;28;20042;-74
2021/12/28 00:20:35;;;;;;;18.33;6.10;;;;;;;6.35;99.70;99351.13;4980996;28;20030;-75
2021/12/28 00:23:03;;;;;;;20.63;7.07;;;;;;;6.37;99.61;99359.09;4978810;28;20436;-75
2021/12/28 00:25:28;;;;;;;28.60;6.32;;;;;;;6.34;99.58;99356.63;4975844;28;20031;-75
2021/12/28 00:27:54;;;;;;;29.48;6.20;;;;;;;6.32;99.68;99351.34;4976737;28;20090;-75
2021/12/28 00:30:20;;;;;;;23.30;6.25;;;;;;;6.23;99.59;99343.13;4986337;28;20022;-74
2021/12/28 00:32:52;;;;;;;22.85;6.03;;;;;;;6.26;99.58;99351.84;4983196;28;20053;-74
2021/12/28 00:35:21;;;;;;;25.58;6.78;;;;;;;6.27;99.53;99355.41;4981586;28;20513;-76
2021/12/28 00:37:46;;;;;;;20.52;6.00;;;;;;;6.25;99.54;99344.72;4984370;28;20085;-75
2021/12/28 00:40:12;;;;;;;25.30;5.32;;;;;;;6.24;99.76;99342.13;4978845;28;20058;-75
2021/12/28 00:42:37;;;;;;;24.40;7.38;;;;;;;6.20;99.18;99341.53;4973861;28;20125;-75
2021/12/28 00:45:04;;;;;;;30.90;7.25;;;;;;;6.20;99.38;99341.53;4983355;28;20505;-74
2021/12/28 00:47:29;;;;;;;20.92;7.07;;;;;;;6.18;99.77;99337.22;4975137;28;20104;-76
2021/12/28 00:49:56;;;;;;;30.23;7.25;;;;;;;6.18;99.59;99329.13;4984635;28;20022;-75
2021/12/28 00:52:21;;;;;;;33.85;6.35;;;;;;;6.21;99.87;99334.28;4984594;28;20076;-76
2021/12/28 00:54:46;;;;;;;25.40;6.50;;;;;;;6.20;99.83;99330.75;4981524;28;20066;-75
2021/12/28 00:57:12;;;;;;;27.08;7.38;;;;;;;6.24;100.00;99325.94;4977702;28;20034;-74
2021/12/28 00:59:37;;;;;;;34.85;6.20;;;;;;;6.30;99.82;99328.16;4984467;28;20038;-75
2021/12/28 01:02:03;;;;;;;24.92;5.32;;;;;;;6.32;100.00;99321.66;4982079;28;20044;-74
2021/12/28 01:04:28;;;;;;;21.77;6.05;;;;;;;6.37;99.87;99321.28;4977727;28;20033;-74
2021/12/28 01:06:53;;;;;;;44.85;6.55;;;;;;;6.41;100.00;99321.91;4977884;28;20026;-74
2021/12/28 01:09:19;;;;;;;31.48;6.00;;;;;;;6.45;100.00;99326.94;4979380;28;20069;-75
2021/12/28 01:11:44;;;;;;;30.45;6.35;;;;;;;6.45;99.96;99312.56;4977857;28;20125;-75
2021/12/28 01:14:10;;;;;;;25.60;6.43;;;;;;;6.43;99.45;99315.38;4974660;28;20751;-76
2021/12/28 01:16:35;;;;;;;23.52;6.65;;;;;;;6.37;99.33;99305.06;4983945;28;20074;-74
2021/12/28 01:19:00;;;;;;;27.08;5.78;;;;;;;6.36;99.56;99309.63;4977126;28;20133;-76
2021/12/28 01:21:26;;;;;;;22.23;5.00;;;;;;;6.33;99.35;99309.00;4977726;28;20061;-75
2021/12/28 01:23:51;;;;;;;29.38;5.70;;;;;;;6.27;99.12;99304.94;4978050;28;20446;-76
2021/12/28 01:26:16;;;;;;;22.25;5.82;;;;;;;6.22;99.31;99303.59;4978821;28;20306;-76
2021/12/28 01:28:42;;;;;;;21.73;5.65;;;;;;;6.17;98.96;99303.97;4977073;28;20853;-75
2021/12/28 01:31:07;;;;;;;23.23;5.45;;;;;;;6.10;99.20;99300.88;4981276;28;20077;-75
2021/12/28 01:33:32;;;;;;;17.98;5.07;;;;;;;6.06;99.05;99302.13;4978809;28;20046;-74
2021/12/28 01:35:58;;;;;;;16.10;5.60;;;;;;;6.00;98.85;99305.28;4978576;28;20502;-75
2021/12/28 01:38:24;;;;;;;20.80;4.63;;;;;;;5.92;99.22;99302.31;4979439;28;20294;-75
2021/12/28 01:40:49;;;;;;;30.45;6.60;;;;;;;5.88;99.39;99309.78;4972432;28;20030;-75
2021/12/28 01:43:20;;;;;;;17.55;5.10;;;;;;;5.82;99.24;99304.84;4971936;28;20041;-74
2021/12/28 01:45:47;;;;;;;24.40;6.25;;;;;;;5.74;98.71;99301.03;4975463;28;20122;-75
2021/12/28 01:48:25;;;;;;;18.52;6.30;;;;;;;5.63;99.19;99291.91;4973969;28;20038;-76
2021/12/28 01:50:53;;;;;;;20.70;5.45;;;;;;;5.68;99.38;99307.75;4973008;28;20103;-73
2021/12/28 01:53:19;;;;;;;20.13;6.47;;;;;;;5.66;99.18;99301.63;4975958;28;20046;-74
2021/12/28 01:55:47;;;;;;;34.00;6.30;;;;;;;5.60;99.23;99300.25;4982350;28;20030;-74
2021/12/28 01:58:13;;;;;;;28.90;5.45;;;;;;;5.59;99.49;99301.22;4984392;28;20034;-74
2021/12/28 02:00:40;;;;;;;22.08;7.25;;;;;;;5.60;99.51;99305.66;4983208;28;20038;-75
2021/12/28 02:03:11;;;;;;;28.85;6.07;;;;;;;5.61;99.46;99306.50;4975330;28;20060;-74
2021/12/28 02:05:38;;;;;;;21.88;6.53;;;;;;;5.61;99.71;99290.34;4975029;28;20026;-75
2021/12/28 02:08:04;;;;;;;30.17;6.35;;;;;;;5.65;99.91;99304.44;4976800;28;20218;-74
2021/12/28 02:10:30;;;;;;;30.52;6.45;;;;;;;5.66;99.54;99293.53;4975522;28;20403;-74
2021/12/28 02:12:55;;;;;;;34.97;7.60;;;;;;;5.64;99.54;99292.78;4979444;28;20034;-74
2021/12/28 02:15:21;;;;;;;16.05;5.85;;;;;;;5.66;99.99;99307.03;4980165;28;20025;-75
2021/12/28 02:17:46;;;;;;;28.90;6.88;;;;;;;5.68;100.00;99288.84;4980477;28;20759;-75
2021/12/28 02:20:15;;;;;;;25.60;6.80;;;;;;;5.72;99.95;99292.19;4972679;28;20053;-75
2021/12/28 02:22:41;;;;;;;32.35;6.85;;;;;;;5.77;100.00;99293.53;4977910;28;20041;-74
2021/12/28 02:25:08;;;;;;;26.10;6.32;;;;;;;5.84;99.83;99300.19;4982798;28;20386;-75
2021/12/28 02:27:34;;;;;;;51.65;8.82;;;;;;;5.89;100.00;99287.22;4982684;28;20072;-74
2021/12/28 02:30:01;;;;;;;32.38;6.55;;;;;;;5.92;100.00;99288.81;4975059;28;20121;-75
2021/12/28 02:32:28;;;;;;;25.92;6.53;;;;;;;5.93;100.00;99276.22;4984126;28;20032;-76
2021/12/28 02:34:54;;;;;;;38.22;5.38;;;;;;;6.00;100.00;99289.09;4976505;28;20041;-75
2021/12/28 02:37:20;;;;;;;29.27;5.93;;;;;;;6.01;100.00;99280.00;4978085;28;20486;-76
2021/12/28 02:39:45;;;;;;;33.30;6.28;;;;;;;6.06;100.00;99285.94;4983407;28;20092;-74
2021/12/28 02:42:11;;;;;;;22.25;5.03;;;;;;;6.08;100.00;99281.25;4974605;28;20033;-74
2021/12/28 02:44:37;;;;;;;28.27;5.53;;;;;;;6.08;100.00;99275.84;4985090;28;20022;-75
2021/12/28 02:47:02;;;;;;;25.70;5.55;;;;;;;6.11;100.00;99274.75;4985379;28;20065;-73
2021/12/28 02:49:27;;;;;;;37.28;6.22;;;;;;;6.12;100.00;99271.06;4984187;28;20088;-76
2021/12/28 02:51:53;;;;;;;40.67;5.75;;;;;;;6.12;99.68;99271.06;4974696;28;20109;-75
2021/12/28 02:54:20;;;;;;;27.30;6.22;;;;;;;6.13;100.00;99260.16;4971474;28;20042;-74
2021/12/28 02:56:45;;;;;;;54.95;6.88;;;;;;;6.12;100.00;99261.13;4981758;28;20503;-75
2021/12/28 02:59:11;;;;;;;29.38;5.85;;;;;;;6.14;100.00;99259.16;4977777;28;20036;-73
2021/12/28 03:01:36;;;;;;;37.58;6.65;;;;;;;6.17;99.74;99262.59;4976232;28;20030;-75
2021/12/28 03:04:05;;;;;;;26.75;7.07;;;;;;;6.14;99.91;99253.75;4978276;28;20439;-74
2021/12/28 03:06:32;;;;;;;30.38;5.65;;;;;;;6.19;100.00;99253.38;4983048;28;20029;-73
2021/12/28 03:08:59;;;;;;;25.50;5.75;;;;;;;6.22;99.73;99255.00;4976262;28;20058;-75
2021/12/28 03:11:27;;;;;;;33.65;6.05;;;;;;;6.22;99.89;99252.28;4978632;28;20038;-75
2021/12/28 03:13:56;;;;;;;24.20;5.57;;;;;;;6.20;99.83;99247.03;4993044;28;20030;-76
2021/12/28 03:16:23;;;;;;;28.05;5.32;;;;;;;6.22;100.00;99244.19;4978387;28;20647;-74
2021/12/28 03:18:49;;;;;;;37.83;7.72;;;;;;;6.21;100.00;99246.03;4982726;28;20031;-74
2021/12/28 03:21:16;;;;;;;35.10;5.90;;;;;;;6.21;99.64;99239.78;4978017;28;20035;-75
2021/12/28 03:23:42;;;;;;;30.73;4.90;;;;;;;6.19;99.97;99242.59;4974265;28;20022;-74
2021/12/28 03:26:08;;;;;;;34.15;5.18;;;;;;;6.17;100.00;99243.72;4981431;28;20030;-75
2021/12/28 03:28:38;;;;;;;25.15;4.65;;;;;;;6.10;99.57;99233.38;4983529;28;20030;-74
2021/12/28 03:31:05;;;;;;;27.85;4.95;;;;;;;6.09;100.00;99234.38;4983172;28;20482;-75
2021/12/28 03:33:36;;;;;;;28.60;4.88;;;;;;;6.09;100.00;99233.50;4972788;28;20506;-74
2021/12/28 03:36:03;;;;;;;27.92;4.82;;;;;;;6.06;99.73;99226.53;4976710;28;20401;-75
2021/12/28 03:38:29;;;;;;;23.95;6.32;;;;;;;6.09;100.00;99236.22;4976911;28;20092;-76
2021/12/28 03:40:54;;;;;;;29.48;6.03;;;;;;;6.14;100.00;99224.06;4978370;28;20467;-75
2021/12/28 03:43:21;;;;;;;30.70;5.32;;;;;;;6.22;100.00;99220.75;4980028;28;20093;-75
2021/12/28 03:45:47;;;;;;;26.73;5.68;;;;;;;6.30;100.00;99222.84;4977809;28;20118;-76
2021/12/28 03:48:12;;;;;;;33.97;6.25;;;;;;;6.34;100.00;99213.47;4981275;28;20122;-74
2021/12/28 03:50:38;;;;;;;40.85;5.30;;;;;;;6.37;100.00;99207.84;4984019;28;20089;-75
2021/12/28 03:53:05;;;;;;;24.48;4.80;;;;;;;6.37;100.00;99199.75;4982454;28;20026;-76
2021/12/28 03:55:30;;;;;;;33.38;5.53;;;;;;;6.43;100.00;99203.78;4978344;28;20037;-74
2021/12/28 03:57:59;;;;;;;25.48;5.38;;;;;;;6.44;100.00;99195.56;4982100;28;20026;-75
2021/12/28 04:00:26;;;;;;;41.03;6.15;;;;;;;6.47;100.00;99194.44;4985029;28;20398;-75
2021/12/28 04:02:51;;;;;;;32.97;5.03;;;;;;;6.49;100.00;99196.03;4983572;28;20030;-75
2021/12/28 04:05:18;;;;;;;28.08;4.85;;;;;;;6.51;100.00;99201.31;4983539;28;20022;-74
2021/12/28 04:07:44;;;;;;;30.38;5.25;;;;;;;6.53;100.00;99193.97;4987980;28;20037;-74
2021/12/28 04:10:11;;;;;;;21.58;5.32;;;;;;;6.58;100.00;99202.53;4989552;28;20046;-73
2021/12/28 04:12:39;;;;;;;31.50;5.03;;;;;;;6.63;100.00;99201.16;4988855;28;20031;-73
2021/12/28 04:15:06;;;;;;;31.05;7.20;;;;;;;6.67;100.00;99185.56;4987404;28;20107;-74
2021/12/28 04:17:33;;;;;;;23.85;4.75;;;;;;;6.74;100.00;99197.56;4988396;28;20045;-74
2021/12/28 04:19:58;;;;;;;34.25;5.20;;;;;;;6.76;100.00;99194.72;4988345;28;20045;-74
2021/12/28 04:22:24;;;;;;;29.30;4.00;;;;;;;6.80;100.00;99196.19;4989507;28;20022;-75
2021/12/28 04:24:49;;;;;;;35.92;5.03;;;;;;;6.82;100.00;99202.34;4989745;28;20025;-73
2021/12/28 04:27:14;;;;;;;24.92;5.35;;;;;;;6.85;100.00;99200.25;4989393;28;20022;-74
2021/12/28 04:29:40;;;;;;;27.02;4.78;;;;;;;6.87;100.00;99192.00;4981174;28;20038;-76
2021/12/28 04:32:06;;;;;;;18.80;4.30;;;;;;;6.90;100.00;99189.91;4982405;28;20028;-75
2021/12/28 04:34:31;;;;;;;29.23;4.88;;;;;;;6.94;100.00;99192.34;4980673;28;20035;-76
2021/12/28 04:36:57;;;;;;;25.63;4.55;;;;;;;6.94;100.00;99198.59;4976178;28;20023;-74
2021/12/28 04:39:22;;;;;;;19.38;5.07;;;;;;;6.99;100.00;99201.78;4981843;28;20035;-73
2021/12/28 04:41:48;;;;;;;25.60;5.72;;;;;;;7.04;100.00;99206.78;4973875;28;20038;-74
2021/12/28 04:44:13;;;;;;;28.27;4.40;;;;;;;7.08;100.00;99200.13;4989744;28;20050;-74
2021/12/28 04:46:40;;;;;;;24.88;4.55;;;;;;;7.13;100.00;99201.50;4985603;28;20026;-74
2021/12/28 04:49:05;;;;;;;22.20;3.70;;;;;;;7.18;100.00;99200.22;4982881;28;20027;-74
2021/12/28 04:51:31;;;;;;;18.13;3.88;;;;;;;7.21;100.00;99198.13;4986589;28;20053;-76
2021/12/28 04:53:59;;;;;;;21.73;3.00;;;;;;;7.25;100.00;99202.28;5003928;28;20034;-76
2021/12/28 04:56:24;;;;;;;18.00;3.05;;;;;;;7.28;100.00;99204.75;4988526;28;20038;-74
2021/12/28 04:58:49;;;;;;;13.30;3.38;;;;;;;7.33;100.00;99215.16;4983365;28;20077;-74
2021/12/28 05:01:15;;;;;;;12.40;2.85;;;;;;;7.38;100.00;99215.63;4987560;28;20025;-74
2021/12/28 05:03:40;;;;;;;14.93;2.95;;;;;;;7.42;100.00;99198.16;4982556;28;20077;-75
2021/12/28 05:06:06;;;;;;;15.77;3.45;;;;;;;7.48;100.00;99192.19;4979159;28;20077;-74
2021/12/28 05:08:31;;;;;;;17.30;2.85;;;;;;;7.54;100.00;99201.63;4979565;28;20030;-75
2021/12/28 05:10:57;;;;;;;16.95;2.88;;;;;;;7.57;100.00;99190.56;4989302;28;20053;-75
2021/12/28 05:13:23;;;;;;;19.58;2.75;;;;;;;7.58;100.00;99186.84;4987647;28;20109;-73
2021/12/28 05:15:49;;;;;;;16.58;3.92;;;;;;;7.58;99.93;99185.00;4988985;28;20034;-76
2021/12/28 05:18:15;;;;;;;19.45;3.35;;;;;;;7.60;99.90;99182.16;4988943;28;20026;-76
2021/12/28 05:20:41;;;;;;;18.33;2.83;;;;;;;7.61;99.73;99184.72;4982764;28;20034;-74
2021/12/28 05:23:07;;;;;;;17.83;2.70;;;;;;;7.63;99.78;99181.88;4980281;28;20045;-74
2021/12/28 05:25:33;;;;;;;17.85;2.47;;;;;;;7.65;99.95;99185.34;4987328;28;20754;-76
2021/12/28 05:27:59;;;;;;;17.80;2.58;;;;;;;7.68;99.80;99174.22;4986265;28;20034;-74
2021/12/28 05:30:24;;;;;;;21.77;3.83;;;;;;;7.71;99.81;99175.81;4986303;28;20037;-75
2021/12/28 05:32:50;;;;;;;17.48;2.72;;;;;;;7.72;100.00;99177.53;4980233;28;20042;-74
2021/12/28 05:35:16;;;;;;;17.92;2.05;;;;;;;7.74;99.99;99176.41;4976252;28;20162;-74
2021/12/28 05:37:41;;;;;;;13.18;2.40;;;;;;;7.76;99.54;99170.84;4983806;28;20038;-76
2021/12/28 05:40:09;;;;;;;13.43;2.70;;;;;;;7.78;99.45;99167.00;4987878;28;20037;-75
2021/12/28 05:42:35;;;;;;;16.10;2.45;;;;;;;7.76;99.51;99160.88;4974309;28;20027;-73
2021/12/28 05:45:00;;;;;;;14.82;2.65;;;;;;;7.76;99.79;99152.75;4982694;28;20517;-76
2021/12/28 05:47:26;;;;;;;17.13;2.80;;;;;;;7.77;99.75;99151.75;4988109;28;20030;-74
2021/12/28 05:49:51;;;;;;;18.00;3.92;;;;;;;7.80;99.29;99156.91;4980923;28;20495;-75
2021/12/28 05:52:16;;;;;;;21.98;2.72;;;;;;;7.81;99.10;99158.63;4985840;28;20038;-75
2021/12/28 05:54:42;;;;;;;18.45;2.60;;;;;;;7.80;99.63;99146.09;4983945;28;20030;-74
2021/12/28 05:57:08;;;;;;;13.25;3.25;;;;;;;7.83;99.20;99147.66;4981554;28;20031;-76
2021/12/28 05:59:34;;;;;;;15.40;2.50;;;;;;;7.83;99.14;99139.53;4977963;28;20056;-75
2021/12/28 06:01:59;;;;;;;9.85;1.98;;;;;;;7.84;99.19;99139.41;4987062;28;20026;-74
2021/12/28 06:04:24;;;;;;;15.38;2.58;;;;;;;7.86;99.28;99141.97;4981295;28;20554;-74
2021/12/28 06:06:50;;;;;;;13.13;1.98;;;;;;;7.87;99.40;99147.25;4984472;28;20034;-74
2021/12/28 06:09:15;;;;;;;21.58;2.83;;;;;;;7.85;99.01;99143.81;4980764;28;20410;-74
2021/12/28 06:11:40;;;;;;;11.07;1.75;;;;;;;7.88;98.92;99148.09;4980339;28;20038;-74
2021/12/28 06:14:06;;;;;;;11.32;2.78;;;;;;;7.91;99.08;99139.72;4976779;28;20030;-74
2021/12/28 06:16:34;;;;;;;6.75;1.67;;;;;;;7.90;99.38;99130.75;4985203;28;20033;-74
2021/12/28 06:18:59;;;;;;;9.50;1.90;;;;;;;7.94;99.54;99128.63;4983067;28;20035;-75
2021/12/28 06:21:26;;;;;;;10.90;2.42;;;;;;;7.93;99.03;99130.47;4978664;28;20085;-76
2021/12/28 06:23:51;;;;;;;9.68;1.52;;;;;;;7.96;99.42;99129.31;4986707;28;20553;-74
2021/12/28 06:26:16;;;;;;;8.80;2.00;;;;;;;7.99;99.35;99136.34;4985093;28;20030;-74
2021/12/28 06:28:41;;;;;;;20.13;2.72;;;;;;;7.99;99.08;99120.94;4985199;28;20038;-74
2021/12/28 06:31:07;;;;;;;14.25;2.30;;;;;;;7.99;98.95;99118.22;4979563;28;20038;-73
2021/12/28 06:33:32;;;;;;;7.63;2.03;;;;;;;7.99;98.81;99115.53;4978344;28;20034;-74
2021/12/28 06:35:57;;;;;;;14.27;1.83;;;;;;;7.97;99.17;99108.50;4987057;28;20121;-74
2021/12/28 06:38:23;;;;;;;9.85;2.00;;;;;;;7.93;98.57;99103.41;4989123;28;20030;-75
2021/12/28 06:40:48;;;;;;;13.00;2.10;;;;;;;7.93;98.77;99102.53;4987429;28;20618;-73
2021/12/28 06:43:14;;;;;;;7.05;2.42;;;;;;;7.94;98.79;99104.25;4979801;28;20037;-74
2021/12/28 06:45:39;;;;;;;8.18;2.58;;;;;;;7.94;98.72;99109.66;4985739;28;20478;-74
2021/12/28 06:48:05;;;;;;;10.93;2.25;;;;;;;7.92;99.00;99112.50;4987502;28;20040;-75
2021/12/28 06:50:31;;;;;;;11.13;2.20;;;;;;;7.90;98.22;99109.06;4977834;28;20049;-75
2021/12/28 06:52:56;;;;;;;11.23;2.13;;;;;;;7.89;98.71;99103.81;4978888;28;20030;-75
2021/12/28 06:55:21;;;;;;;10.30;2.35;;;;;;;7.91;98.61;99105.38;4983559;28;20581;-74
2021/12/28 06:57:46;;;;;;;7.70;2.03;;;;;;;7.93;98.52;99103.41;4983330;28;20061;-74
2021/12/28 07:00:15;;;;;;;14.02;3.70;;;;;;;7.96;98.53;99106.81;4979403;28;20371;-75
2021/12/28 07:02:41;;;;;;;6.88;2.55;;;;;;;7.95;98.42;99105.97;4985719;28;20134;-75
2021/12/28 07:05:07;;;;;;;12.23;2.55;;;;;;;7.93;98.46;99107.97;4978491;28;20018;-74
2021/12/28 07:07:33;;;;;;;11.55;2.35;;;;;;;7.88;98.08;99097.53;4985644;28;20034;-74
2021/12/28 07:09:59;;;;;;;5.45;1.92;;;;;;;7.91;98.50;99099.09;4986843;28;20046;-74
2021/12/28 07:12:24;;;;;;;6.72;1.67;;;;;;;7.91;98.36;99107.22;4986608;28;20038;-74
2021/12/28 07:14:50;;;;;;;5.75;2.22;;;;;;;7.91;98.10;99101.81;4986295;28;20022;-75
2021/12/28 07:17:15;;;;;;;11.63;2.47;;;;;;;7.93;98.50;99102.53;4979798;28;20030;-75
2021/12/28 07:19:41;;;;;;;9.75;2.05;;;;;;;7.94;98.51;99098.84;4976913;28;20041;-75
2021/12/28 07:22:06;;;;;;;8.90;2.25;;;;;;;7.96;97.93;99099.53;4985470;28;20368;-74
2021/12/28 07:24:31;;;;;;;4.43;1.63;;;;;;;7.96;98.09;99098.69;4984690;28;20033;-74
2021/12/28 07:26:57;;;;;;;8.15;1.70;;;;;;;7.97;98.00;99101.25;4982264;28;20090;-75
2021/12/28 07:29:23;;;;;;;7.57;2.25;;;;;;;7.97;98.20;99103.09;4985011;28;20026;-75
2021/12/28 07:31:49;;;;;;;8.68;2.17;;;;;;;8.00;98.26;99103.69;4974445;28;20486;-75
2021/12/28 07:34:15;;;;;;;16.27;3.88;;;;;;;8.01;97.93;99099.97;4976608;28;20034;-75
2021/12/28 07:36:40;;;;;;;10.23;1.60;;;;;;;8.03;98.40;99098.00;4982016;28;20490;-74
2021/12/28 07:39:06;;;;;;;6.95;1.45;;;;;;;8.02;98.22;99096.31;4988566;28;20030;-75
2021/12/28 07:41:31;;;;;;;6.18;1.30;;;;;;;7.99;98.64;99088.44;4987766;28;20101;-75
2021/12/28 07:43:57;;;;;;;6.88;1.55;;;;;;;8.02;98.71;99098.13;4990311;28;20026;-75
2021/12/28 07:46:22;;;;;;;6.25;1.95;;;;;;;8.03;98.89;99105.28;4985514;28;20483;-75
2021/12/28 07:48:48;;;;;;;3.33;1.63;;;;;;;8.03;98.30;99106.13;4981391;28;20038;-75
2021/12/28 07:51:13;;;;;;;9.63;1.50;;;;;;;8.05;99.06;99096.00;4982671;28;20048;-75
2021/12/28 07:53:39;;;;;;;6.57;1.80;;;;;;;8.06;98.45;99099.56;4983584;28;20026;-75
2021/12/28 07:56:04;;;;;;;6.90;1.88;;;;;;;8.05;98.98;99093.28;4990503;28;20030;-75
2021/12/28 07:58:30;;;;;;;7.97;1.70;;;;;;;8.06;98.59;99095.00;4981195;28;20505;-74
2021/12/28 08:00:56;;;;;;;6.07;2.00;;;;;;;8.07;98.85;99096.75;4985461;28;20517;-74
2021/12/28 08:03:22;;;;;;;5.57;1.80;;;;;;;8.07;98.86;99091.31;4975311;28;20042;-74
2021/12/28 08:05:49;;;;;;;5.88;1.88;;;;;;;8.09;98.64;99085.75;4988434;28;20509;-74
2021/12/28 08:08:14;;;;;;;5.00;1.92;;;;;;;8.11;98.64;99083.75;4989175;28;20037;-75
2021/12/28 08:10:40;;;;;;;5.70;1.90;;;;;;;8.12;99.09;99078.22;4985320;28;20054;-74
2021/12/28 08:13:05;;;;;;;7.72;2.42;;;;;;;8.15;98.64;99077.06;4986709;28;20068;-74
2021/12/28 08:15:30;;;;;;;5.22;2.25;;;;;;;8.14;98.82;99084.34;4984185;28;20022;-74
2021/12/28 08:17:56;;;;;;;9.05;2.80;;;;;;;8.18;98.66;99088.50;4990290;28;20030;-75
2021/12/28 08:20:21;;;;;;;4.80;2.50;;;;;;;8.21;99.19;99086.47;4984687;28;20042;-74
2021/12/28 08:22:48;;;;;;;7.68;2.60;;;;;;;8.22;99.02;99082.81;4981009;28;20594;-75
2021/12/28 08:25:17;;;;;;;8.40;2.92;;;;;;;8.23;98.91;99084.50;4976732;28;20483;-74
2021/12/28 08:27:42;;;;;;;9.57;2.90;;;;;;;8.22;99.33;99077.38;4984079;28;20027;-75
2021/12/28 08:30:09;;;;;;;6.00;2.95;;;;;;;8.24;99.22;99078.09;4980318;28;20042;-75
2021/12/28 08:32:35;;;;;;;8.90;3.42;;;;;;;8.23;99.22;99071.81;4986760;28;20030;-75
2021/12/28 08:35:01;;;;;;;8.95;2.88;;;;;;;8.26;99.20;99076.13;4981028;28;20034;-76
2021/12/28 08:37:27;;;;;;;7.07;2.80;;;;;;;8.24;99.25;99073.53;4986915;28;20029;-75
2021/12/28 08:39:53;;;;;;;7.97;3.38;;;;;;;8.28;99.00;99066.84;4987076;28;20037;-75
2021/12/28 08:42:21;;;;;;;5.57;2.97;;;;;;;8.28;99.16;99064.13;4973009;28;20026;-75
2021/12/28 08:44:46;;;;;;;5.78;3.53;;;;;;;8.34;99.20;99076.25;4983483;28;20497;-76
2021/12/28 08:47:11;;;;;;;9.80;3.72;;;;;;;8.35;99.48;99072.56;4977863;28;20022;-75
2021/12/28 08:49:37;;;;;;;8.85;3.85;;;;;;;8.34;99.19;99065.41;4981931;28;20037;-75
2021/12/28 08:52:02;;;;;;;8.75;3.67;;;;;;;8.38;99.23;99073.16;4986535;28;20137;-74
2021/12/28 08:54:28;;;;;;;7.03;4.32;;;;;;;8.40;99.37;99070.31;4985754;28;20402;-75
2021/12/28 08:56:53;;;;;;;11.68;4.20;;;;;;;8.42;99.53;99074.59;4986420;28;20395;-75
2021/12/28 08:59:19;;;;;;;6.72;3.97;;;;;;;8.41;99.41;99063.91;4987985;28;20490;-77
2021/12/28 09:01:46;;;;;;;8.98;4.05;;;;;;;8.43;99.07;99065.44;4987318;28;20031;-74
2021/12/28 09:04:11;;;;;;;9.27;5.53;;;;;;;8.43;99.26;99065.44;4980016;28;20085;-75
2021/12/28 09:06:37;;;;;;;9.57;4.63;;;;;;;8.45;99.44;99067.19;4983874;28;20030;-75
2021/12/28 09:09:03;;;;;;;9.60;4.68;;;;;;;8.49;99.21;99064.06;4979934;28;20050;-75
2021/12/28 09:11:28;;;;;;;9.10;5.22;;;;;;;8.50;99.72;99054.91;4988044;28;20034;-74
2021/12/28 09:13:53;;;;;;;8.57;5.22;;;;;;;8.54;99.22;99055.50;4988917;28;20390;-75
2021/12/28 09:16:19;;;;;;;9.98;5.47;;;;;;;8.55;99.59;99051.78;4979097;28;20503;-74
2021/12/28 09:18:45;;;;;;;8.07;4.55;;;;;;;8.56;99.36;99053.47;4986403;28;20113;-75
2021/12/28 09:21:11;;;;;;;9.02;5.53;;;;;;;8.60;99.08;99049.50;4986629;28;20061;-74
2021/12/28 09:23:38;;;;;;;9.23;6.28;;;;;;;8.61;99.38;99049.34;4987414;28;20216;-75
2021/12/28 09:26:04;;;;;;;8.60;5.47;;;;;;;8.63;99.50;99050.06;4985622;28;20022;-75
2021/12/28 09:28:29;;;;;;;9.32;5.50;;;;;;;8.66;99.58;99043.50;4980881;28;20033;-75
2021/12/28 09:30:54;;;;;;;9.00;6.57;;;;;;;8.71;99.19;99048.47;4988299;28;20033;-75
2021/12/28 09:33:20;;;;;;;11.88;6.40;;;;;;;8.70;99.23;99036.78;4980625;28;20383;-75
2021/12/28 09:35:45;;;;;;;9.60;6.03;;;;;;;8.76;99.31;99041.63;4985254;28;20030;-75
2021/12/28 09:38:11;;;;;;;12.07;6.05;;;;;;;8.78;99.17;99044.22;4988022;28;20427;-75
2021/12/28 09:40:37;;;;;;;9.50;6.40;;;;;;;8.79;99.70;99026.94;4982127;28;20395;-76
2021/12/28 09:43:05;;;;;;;8.40;5.82;;;;;;;8.82;99.26;99030.22;4978192;28;20077;-74
2021/12/28 09:45:32;;;;;;;9.90;6.18;;;;;;;8.83;99.28;99025.66;4988525;28;20021;-75
2021/12/28 09:47:58;;;;;;;9.20;6.50;;;;;;;8.82;99.16;99018.53;4986405;28;20030;-74
2021/12/28 09:50:24;;;;;;;10.15;6.28;;;;;;;8.87;99.23;99024.38;4979271;28;20072;-76
2021/12/28 09:52:51;;;;;;;8.77;6.20;;;;;;;8.88;99.28;99024.22;4987261;28;20058;-75
2021/12/28 09:55:19;;;;;;;9.00;6.13;;;;;;;8.87;99.21;99010.81;4979820;28;20026;-74
2021/12/28 09:57:45;;;;;;;11.10;6.38;;;;;;;8.88;99.51;99018.78;4980122;28;20030;-75
2021/12/28 10:00:12;;;;;;;9.82;6.05;;;;;;;8.91;99.42;99021.22;4982095;28;20053;-74
2021/12/28 10:02:38;;;;;;;8.38;5.55;;;;;;;8.93;98.95;99011.06;4987970;28;20366;-74
2021/12/28 10:05:09;;;;;;;8.35;5.97;;;;;;;9.00;98.75;99003.22;4978656;28;20018;-75
2021/12/28 10:07:37;;;;;;;8.85;5.20;;;;;;;9.06;98.83;99007.19;4977235;28;20026;-74
2021/12/28 10:10:06;;;;;;;6.45;5.38;;;;;;;9.10;98.76;99004.03;4987889;28;20406;-75
2021/12/28 10:12:34;;;;;;;6.15;4.97;;;;;;;9.12;98.43;98995.75;4980912;28;20057;-75
2021/12/28 10:15:04;;;;;;;7.07;5.10;;;;;;;9.12;98.67;98991.16;4985263;28;20444;-75
2021/12/28 10:17:31;;;;;;;8.02;5.55;;;;;;;9.14;98.68;98996.47;4987708;28;20026;-74
2021/12/28 10:19:59;;;;;;;7.45;5.18;;;;;;;9.14;98.11;98989.19;4984940;28;20038;-73
2021/12/28 10:22:39;;;;;;;6.82;5.40;;;;;;;9.16;98.49;98979.03;4983664;28;20128;-74
2021/12/28 10:25:09;;;;;;;7.53;4.72;;;;;;;9.19;98.45;98975.19;4973807;28;20033;-74
2021/12/28 10:27:36;;;;;;;7.97;5.05;;;;;;;9.23;98.60;98964.84;4981888;28;20290;-73
2021/12/28 10:30:09;;;;;;;6.45;4.03;;;;;;;9.25;97.81;98962.88;4986403;28;20029;-74
2021/12/28 10:32:36;;;;;;;5.63;4.72;;;;;;;9.29;98.03;98956.13;4985744;28;20439;-75
2021/12/28 10:35:07;;;;;;;4.82;3.92;;;;;;;9.33;98.08;98955.69;4982132;28;20113;-74
2021/12/28 10:37:36;;;;;;;4.88;3.80;;;;;;;9.38;97.90;98947.94;4975973;28;20030;-74
2021/12/28 10:40:05;;;;;;;7.90;3.75;;;;;;;9.44;97.99;98950.06;4980802;28;20065;-75
2021/12/28 10:42:57;;;;;;;6.65;3.92;;;;;;;9.50;97.48;98945.03;4983357;28;20494;-74
2021/12/28 10:45:26;;;;;;;3.10;2.70;;;;;;;9.53;97.29;98944.72;4975017;28;20769;-74
2021/12/28 10:47:53;;;;;;;12.32;3.60;;;;;;;9.52;96.49;98932.16;4971080;28;20471;-74
2021/12/28 10:50:22;;;;;;;4.35;2.60;;;;;;;9.52;96.57;98943.03;4995993;28;20061;-74
2021/12/28 10:52:51;;;;;;;3.83;2.58;;;;;;;9.52;96.07;98943.88;4979474;28;20026;-74
2021/12/28 10:55:24;;;;;;;4.53;2.40;;;;;;;9.50;96.38;98937.72;4984553;28;20045;-75
2021/12/28 10:57:51;;;;;;;6.13;2.38;;;;;;;9.50;95.92;98939.59;4981245;28;20026;-74
2021/12/28 11:00:35;;;;;;;2.70;2.13;;;;;;;9.50;96.49;98942.31;4975981;28;20536;-74
2021/12/28 11:03:23;;;;;;;4.63;2.97;;;;;;;9.49;96.47;98937.91;4978257;28;20038;-76
2021/12/28 11:05:51;;;;;;;3.67;2.65;;;;;;;9.45;96.98;98931.91;4973104;28;20062;-75
2021/12/28 11:08:17;;;;;;;3.50;2.33;;;;;;;9.43;96.75;98932.06;4974161;28;20043;-74
2021/12/28 11:10:56;;;;;;;3.85;2.35;;;;;;;9.43;97.24;98917.66;4982294;28;20133;-75
2021/12/28 11:13:25;;;;;;;2.75;2.10;;;;;;;9.43;97.48;98909.50;4977887;28;20049;-74
2021/12/28 11:15:50;;;;;;;4.57;2.30;;;;;;;9.42;97.65;98907.81;4976694;28;20034;-76
2021/12/28 11:18:30;;;;;;;5.20;2.63;;;;;;;9.42;97.70;98905.94;4975700;28;20043;-76
2021/12/28 11:20:58;;;;;;;4.32;1.83;;;;;;;9.40;97.94;98898.94;4980349;28;20505;-75
2021/12/28 11:23:26;;;;;;;2.25;2.05;;;;;;;9.41;97.66;98903.34;4976703;28;20034;-75
2021/12/28 11:26:06;;;;;;;3.55;2.13;;;;;;;9.40;97.60;98907.09;4977175;28;20030;-74
2021/12/28 11:28:33;;;;;;;4.50;2.58;;;;;;;9.39;97.58;98902.66;4976180;28;20490;-74
2021/12/28 11:31:17;;;;;;;2.22;1.90;;;;;;;9.39;97.53;98891.81;4978610;28;20026;-76